sensor_id;sensor_type;location;lat;lon;timestamp;P1;durP1;ratioP1;P2;durP2;ratioP2
14048;SDS011;7099;53.922;10.728;2023-01-29T00:00:46;16.63;;;9.80;;
14048;SDS011;7099;53.922;10.728;2023-01-29T00:04:52;17.63;;;11.23;;
14048;SDS011;7099;53.922;10.728;2023-01-29T00:09:02;19.30;;;11.03;;
14048;SDS011;7099;53.922;10.728;2023-01-29T00:13:08;21.20;;;11.63;;
14048;SDS011;7099;53.922;10.728;2023-01-29T00:17:13;15.13;;;10.30;;
14048;SDS011;7099;53.922;10.728;2023-01-29T00:21:19;16.60;;;11.27;;
14048;SDS011;7099;53.922;10.728;2023-01-29T00:25:26;21.40;;;12.70;;
14048;SDS011;7099;53.922;10.728;2023-01-29T00:29:32;23.07;;;12.30;;
14048;SDS011;7099;53.922;10.728;2023-01-29T00:33:37;18.20;;;11.07;;
14048;SDS011;7099;53.922;10.728;2023-01-29T00:37:43;16.83;;;10.77;;
14048;SDS011;7099;53.922;10.728;2023-01-29T00:41:49;22.97;;;11.27;;
14048;SDS011;7099;53.922;10.728;2023-01-29T00:46:12;14.63;;;9.17;;
14048;SDS011;7099;53.922;10.728;2023-01-29T00:50:18;18.67;;;10.07;;
14048;SDS011;7099;53.922;10.728;2023-01-29T00:54:24;13.20;;;9.77;;
14048;SDS011;7099;53.922;10.728;2023-01-29T00:58:29;15.17;;;10.03;;
14048;SDS011;7099;53.922;10.728;2023-01-29T01:02:38;19.60;;;10.73;;
14048;SDS011;7099;53.922;10.728;2023-01-29T01:07:02;14.73;;;8.90;;
14048;SDS011;7099;53.922;10.728;2023-01-29T01:11:07;11.37;;;7.40;;
14048;SDS011;7099;53.922;10.728;2023-01-29T01:15:13;15.17;;;7.67;;
14048;SDS011;7099;53.922;10.728;2023-01-29T01:19:18;14.23;;;8.67;;
14048;SDS011;7099;53.922;10.728;2023-01-29T01:23:24;11.50;;;8.10;;
14048;SDS011;7099;53.922;10.728;2023-01-29T01:27:30;12.93;;;8.90;;
14048;SDS011;7099;53.922;10.728;2023-01-29T01:31:35;13.40;;;8.60;;
14048;SDS011;7099;53.922;10.728;2023-01-29T01:35:41;12.17;;;8.03;;
14048;SDS011;7099;53.922;10.728;2023-01-29T01:39:46;14.67;;;8.13;;
14048;SDS011;7099;53.922;10.728;2023-01-29T01:43:56;13.80;;;8.90;;
14048;SDS011;7099;53.922;10.728;2023-01-29T01:48:16;13.87;;;8.70;;
14048;SDS011;7099;53.922;10.728;2023-01-29T01:52:23;11.83;;;8.50;;
14048;SDS011;7099;53.922;10.728;2023-01-29T01:56:30;13.30;;;9.07;;
14048;SDS011;7099;53.922;10.728;2023-01-29T02:00:49;12.60;;;7.90;;
14048;SDS011;7099;53.922;10.728;2023-01-29T02:04:55;14.93;;;9.40;;
14048;SDS011;7099;53.922;10.728;2023-01-29T02:09:19;12.40;;;8.07;;
14048;SDS011;7099;53.922;10.728;2023-01-29T02:13:40;17.07;;;8.83;;
14048;SDS011;7099;53.922;10.728;2023-01-29T02:17:46;11.23;;;8.30;;
14048;SDS011;7099;53.922;10.728;2023-01-29T02:31:28;12.07;;;8.67;;
14048;SDS011;7099;53.922;10.728;2023-01-29T02:35:47;11.63;;;8.37;;
14048;SDS011;7099;53.922;10.728;2023-01-29T02:48:56;18.33;;;8.50;;
14048;SDS011;7099;53.922;10.728;2023-01-29T02:53:15;12.17;;;7.50;;
14048;SDS011;7099;53.922;10.728;2023-01-29T02:57:42;12.40;;;7.83;;
14048;SDS011;7099;53.922;10.728;2023-01-29T03:01:54;11.70;;;8.50;;
14048;SDS011;7099;53.922;10.728;2023-01-29T03:06:14;11.57;;;8.33;;
14048;SDS011;7099;53.922;10.728;2023-01-29T03:10:54;12.60;;;8.33;;
14048;SDS011;7099;53.922;10.728;2023-01-29T03:15:07;15.63;;;7.77;;
14048;SDS011;7099;53.922;10.728;2023-01-29T03:19:34;18.43;;;8.70;;
14048;SDS011;7099;53.922;10.728;2023-01-29T03:23:45;12.43;;;7.60;;
14048;SDS011;7099;53.922;10.728;2023-01-29T03:28:09;14.20;;;6.80;;
14048;SDS011;7099;53.922;10.728;2023-01-29T03:32:39;10.23;;;6.60;;
14048;SDS011;7099;53.922;10.728;2023-01-29T03:45:38;12.30;;;7.20;;
14048;SDS011;7099;53.922;10.728;2023-01-29T03:50:04;11.47;;;7.03;;
14048;SDS011;7099;53.922;10.728;2023-01-29T04:03:38;12.63;;;6.40;;
14048;SDS011;7099;53.922;10.728;2023-01-29T04:07:53;9.40;;;6.63;;
14048;SDS011;7099;53.922;10.728;2023-01-29T04:12:08;13.83;;;7.60;;
14048;SDS011;7099;53.922;10.728;2023-01-29T04:16:30;10.57;;;7.33;;
14048;SDS011;7099;53.922;10.728;2023-01-29T04:20:41;9.93;;;6.37;;
14048;SDS011;7099;53.922;10.728;2023-01-29T04:24:47;12.23;;;7.30;;
14048;SDS011;7099;53.922;10.728;2023-01-29T04:33:49;9.40;;;6.97;;
14048;SDS011;7099;53.922;10.728;2023-01-29T04:43:02;12.23;;;7.13;;
14048;SDS011;7099;53.922;10.728;2023-01-29T04:47:20;13.07;;;8.53;;
14048;SDS011;7099;53.922;10.728;2023-01-29T04:52:00;14.93;;;7.40;;
14048;SDS011;7099;53.922;10.728;2023-01-29T05:00:42;10.60;;;6.77;;
14048;SDS011;7099;53.922;10.728;2023-01-29T05:04:49;11.73;;;7.33;;
14048;SDS011;7099;53.922;10.728;2023-01-29T05:08:56;11.53;;;7.60;;
14048;SDS011;7099;53.922;10.728;2023-01-29T05:13:03;15.90;;;7.90;;
14048;SDS011;7099;53.922;10.728;2023-01-29T05:17:17;10.90;;;6.97;;
14048;SDS011;7099;53.922;10.728;2023-01-29T05:21:24;9.60;;;6.70;;
14048;SDS011;7099;53.922;10.728;2023-01-29T05:25:31;11.73;;;7.57;;
14048;SDS011;7099;53.922;10.728;2023-01-29T05:29:47;14.50;;;8.40;;
14048;SDS011;7099;53.922;10.728;2023-01-29T05:33:52;14.30;;;8.00;;
14048;SDS011;7099;53.922;10.728;2023-01-29T05:37:59;15.57;;;8.57;;
14048;SDS011;7099;53.922;10.728;2023-01-29T05:42:05;14.50;;;7.83;;
14048;SDS011;7099;53.922;10.728;2023-01-29T05:46:11;17.67;;;9.47;;
14048;SDS011;7099;53.922;10.728;2023-01-29T05:50:16;14.40;;;9.17;;
14048;SDS011;7099;53.922;10.728;2023-01-29T05:54:23;14.20;;;8.60;;
14048;SDS011;7099;53.922;10.728;2023-01-29T05:58:29;12.27;;;7.30;;
14048;SDS011;7099;53.922;10.728;2023-01-29T06:02:36;9.93;;;6.70;;
14048;SDS011;7099;53.922;10.728;2023-01-29T06:06:41;9.23;;;6.63;;
14048;SDS011;7099;53.922;10.728;2023-01-29T06:10:47;8.40;;;6.10;;
14048;SDS011;7099;53.922;10.728;2023-01-29T06:14:52;5.60;;;4.13;;
14048;SDS011;7099;53.922;10.728;2023-01-29T06:18:58;6.43;;;4.70;;
14048;SDS011;7099;53.922;10.728;2023-01-29T06:23:04;9.33;;;4.57;;
14048;SDS011;7099;53.922;10.728;2023-01-29T06:27:09;4.20;;;3.80;;
14048;SDS011;7099;53.922;10.728;2023-01-29T06:31:15;4.60;;;3.80;;
14048;SDS011;7099;53.922;10.728;2023-01-29T06:35:40;4.40;;;3.70;;
14048;SDS011;7099;53.922;10.728;2023-01-29T06:39:46;3.90;;;3.53;;
14048;SDS011;7099;53.922;10.728;2023-01-29T06:43:51;5.20;;;3.80;;
14048;SDS011;7099;53.922;10.728;2023-01-29T06:47:57;6.00;;;4.40;;
14048;SDS011;7099;53.922;10.728;2023-01-29T06:52:05;5.43;;;4.43;;
14048;SDS011;7099;53.922;10.728;2023-01-29T06:56:10;6.50;;;4.67;;
14048;SDS011;7099;53.922;10.728;2023-01-29T07:00:16;7.77;;;5.17;;
14048;SDS011;7099;53.922;10.728;2023-01-29T07:04:22;9.47;;;5.60;;
14048;SDS011;7099;53.922;10.728;2023-01-29T07:08:28;6.90;;;5.70;;
14048;SDS011;7099;53.922;10.728;2023-01-29T07:12:33;5.93;;;5.20;;
14048;SDS011;7099;53.922;10.728;2023-01-29T07:16:39;8.13;;;5.13;;
14048;SDS011;7099;53.922;10.728;2023-01-29T07:20:45;7.47;;;5.13;;
14048;SDS011;7099;53.922;10.728;2023-01-29T07:24:50;7.80;;;5.20;;
14048;SDS011;7099;53.922;10.728;2023-01-29T07:28:56;10.33;;;6.13;;
14048;SDS011;7099;53.922;10.728;2023-01-29T07:33:05;9.33;;;5.47;;
14048;SDS011;7099;53.922;10.728;2023-01-29T07:37:13;7.07;;;5.60;;
14048;SDS011;7099;53.922;10.728;2023-01-29T07:41:18;7.20;;;5.37;;
14048;SDS011;7099;53.922;10.728;2023-01-29T07:45:24;9.00;;;5.80;;
14048;SDS011;7099;53.922;10.728;2023-01-29T07:49:29;8.83;;;6.30;;
14048;SDS011;7099;53.922;10.728;2023-01-29T07:53:35;12.30;;;6.63;;
14048;SDS011;7099;53.922;10.728;2023-01-29T07:57:42;10.53;;;6.10;;
14048;SDS011;7099;53.922;10.728;2023-01-29T08:01:48;9.40;;;5.87;;
14048;SDS011;7099;53.922;10.728;2023-01-29T08:05:53;10.13;;;6.20;;
14048;SDS011;7099;53.922;10.728;2023-01-29T08:10:01;8.77;;;5.70;;
14048;SDS011;7099;53.922;10.728;2023-01-29T08:14:07;11.83;;;5.63;;
14048;SDS011;7099;53.922;10.728;2023-01-29T08:18:15;10.63;;;5.40;;
14048;SDS011;7099;53.922;10.728;2023-01-29T08:22:20;7.50;;;5.97;;
14048;SDS011;7099;53.922;10.728;2023-01-29T08:26:26;9.73;;;5.93;;
14048;SDS011;7099;53.922;10.728;2023-01-29T08:30:32;9.00;;;6.20;;
14048;SDS011;7099;53.922;10.728;2023-01-29T08:34:39;10.63;;;5.83;;
14048;SDS011;7099;53.922;10.728;2023-01-29T08:38:44;10.07;;;6.60;;
14048;SDS011;7099;53.922;10.728;2023-01-29T08:42:50;8.50;;;6.00;;
14048;SDS011;7099;53.922;10.728;2023-01-29T08:46:55;6.10;;;4.53;;
14048;SDS011;7099;53.922;10.728;2023-01-29T08:51:01;7.27;;;5.03;;
14048;SDS011;7099;53.922;10.728;2023-01-29T08:55:08;8.80;;;6.30;;
14048;SDS011;7099;53.922;10.728;2023-01-29T08:59:14;9.33;;;6.20;;
14048;SDS011;7099;53.922;10.728;2023-01-29T09:03:20;11.20;;;6.90;;
14048;SDS011;7099;53.922;10.728;2023-01-29T09:07:25;9.33;;;7.10;;
14048;SDS011;7099;53.922;10.728;2023-01-29T09:11:33;11.20;;;7.37;;
14048;SDS011;7099;53.922;10.728;2023-01-29T09:15:38;12.83;;;8.20;;
14048;SDS011;7099;53.922;10.728;2023-01-29T09:19:44;13.80;;;8.27;;
14048;SDS011;7099;53.922;10.728;2023-01-29T09:23:49;13.10;;;8.40;;
14048;SDS011;7099;53.922;10.728;2023-01-29T09:27:55;13.33;;;7.97;;
14048;SDS011;7099;53.922;10.728;2023-01-29T09:32:00;12.07;;;8.20;;
14048;SDS011;7099;53.922;10.728;2023-01-29T09:36:08;14.20;;;7.80;;
14048;SDS011;7099;53.922;10.728;2023-01-29T09:40:21;14.17;;;7.63;;
14048;SDS011;7099;53.922;10.728;2023-01-29T09:49:14;13.73;;;7.93;;
14048;SDS011;7099;53.922;10.728;2023-01-29T09:53:38;13.83;;;8.77;;
14048;SDS011;7099;53.922;10.728;2023-01-29T09:57:52;15.60;;;8.47;;
14048;SDS011;7099;53.922;10.728;2023-01-29T10:10:56;19.80;;;9.30;;
14048;SDS011;7099;53.922;10.728;2023-01-29T10:29:18;14.37;;;9.30;;
14048;SDS011;7099;53.922;10.728;2023-01-29T10:33:41;18.97;;;10.90;;
14048;SDS011;7099;53.922;10.728;2023-01-29T10:38:17;18.00;;;11.07;;
14048;SDS011;7099;53.922;10.728;2023-01-29T10:42:42;13.10;;;9.77;;
14048;SDS011;7099;53.922;10.728;2023-01-29T10:47:29;17.57;;;10.70;;
14048;SDS011;7099;53.922;10.728;2023-01-29T10:52:08;18.50;;;10.97;;
14048;SDS011;7099;53.922;10.728;2023-01-29T11:01:24;15.47;;;10.40;;
14048;SDS011;7099;53.922;10.728;2023-01-29T11:05:33;18.27;;;12.53;;
14048;SDS011;7099;53.922;10.728;2023-01-29T11:10:22;17.20;;;11.47;;
14048;SDS011;7099;53.922;10.728;2023-01-29T11:14:48;20.97;;;12.13;;
14048;SDS011;7099;53.922;10.728;2023-01-29T11:18:59;20.03;;;10.93;;
14048;SDS011;7099;53.922;10.728;2023-01-29T11:23:05;16.83;;;11.43;;
14048;SDS011;7099;53.922;10.728;2023-01-29T11:27:31;18.83;;;12.50;;
14048;SDS011;7099;53.922;10.728;2023-01-29T11:31:39;18.10;;;12.20;;
14048;SDS011;7099;53.922;10.728;2023-01-29T11:35:45;19.60;;;12.63;;
14048;SDS011;7099;53.922;10.728;2023-01-29T11:39:51;23.00;;;13.03;;
14048;SDS011;7099;53.922;10.728;2023-01-29T11:43:56;17.03;;;11.10;;
14048;SDS011;7099;53.922;10.728;2023-01-29T11:48:03;19.30;;;12.77;;
14048;SDS011;7099;53.922;10.728;2023-01-29T11:52:46;20.37;;;12.37;;
14048;SDS011;7099;53.922;10.728;2023-01-29T11:56:52;18.27;;;11.80;;
14048;SDS011;7099;53.922;10.728;2023-01-29T12:00:58;17.57;;;11.70;;
14048;SDS011;7099;53.922;10.728;2023-01-29T12:05:05;21.13;;;12.07;;
14048;SDS011;7099;53.922;10.728;2023-01-29T12:09:24;15.90;;;11.37;;
14048;SDS011;7099;53.922;10.728;2023-01-29T12:13:32;16.70;;;10.50;;
14048;SDS011;7099;53.922;10.728;2023-01-29T12:17:39;19.87;;;10.97;;
14048;SDS011;7099;53.922;10.728;2023-01-29T12:21:54;22.70;;;13.03;;
14048;SDS011;7099;53.922;10.728;2023-01-29T12:26:08;17.83;;;11.77;;
14048;SDS011;7099;53.922;10.728;2023-01-29T12:30:38;11.37;;;7.23;;
14048;SDS011;7099;53.922;10.728;2023-01-29T12:39:08;19.07;;;12.07;;
14048;SDS011;7099;53.922;10.728;2023-01-29T12:43:19;16.10;;;10.53;;
14048;SDS011;7099;53.922;10.728;2023-01-29T12:47:37;16.30;;;9.30;;
14048;SDS011;7099;53.922;10.728;2023-01-29T12:51:51;15.30;;;11.43;;
14048;SDS011;7099;53.922;10.728;2023-01-29T12:56:19;16.10;;;11.17;;
14048;SDS011;7099;53.922;10.728;2023-01-29T13:00:39;17.97;;;11.90;;
14048;SDS011;7099;53.922;10.728;2023-01-29T13:04:54;17.50;;;11.13;;
14048;SDS011;7099;53.922;10.728;2023-01-29T13:09:29;18.23;;;12.70;;
14048;SDS011;7099;53.922;10.728;2023-01-29T13:13:42;19.80;;;12.40;;
14048;SDS011;7099;53.922;10.728;2023-01-29T13:18:01;19.60;;;12.17;;
14048;SDS011;7099;53.922;10.728;2023-01-29T13:22:35;19.30;;;12.20;;
14048;SDS011;7099;53.922;10.728;2023-01-29T13:26:44;21.13;;;12.97;;
14048;SDS011;7099;53.922;10.728;2023-01-29T13:35:34;18.40;;;13.00;;
14048;SDS011;7099;53.922;10.728;2023-01-29T13:39:47;20.97;;;13.47;;
14048;SDS011;7099;53.922;10.728;2023-01-29T13:43:55;20.10;;;13.80;;
14048;SDS011;7099;53.922;10.728;2023-01-29T13:48:39;22.97;;;13.77;;
14048;SDS011;7099;53.922;10.728;2023-01-29T13:52:43;18.87;;;12.60;;
14048;SDS011;7099;53.922;10.728;2023-01-29T13:56:58;18.80;;;12.90;;
14048;SDS011;7099;53.922;10.728;2023-01-29T14:01:05;20.07;;;13.57;;
14048;SDS011;7099;53.922;10.728;2023-01-29T14:18:56;19.80;;;13.80;;
14048;SDS011;7099;53.922;10.728;2023-01-29T14:23:05;21.80;;;14.20;;
14048;SDS011;7099;53.922;10.728;2023-01-29T14:27:17;21.10;;;13.77;;
14048;SDS011;7099;53.922;10.728;2023-01-29T14:31:48;23.80;;;15.57;;
14048;SDS011;7099;53.922;10.728;2023-01-29T14:36:11;23.40;;;15.90;;
14048;SDS011;7099;53.922;10.728;2023-01-29T14:48:50;24.87;;;15.80;;
14048;SDS011;7099;53.922;10.728;2023-01-29T14:53:02;25.57;;;16.27;;
14048;SDS011;7099;53.922;10.728;2023-01-29T14:57:38;24.97;;;15.90;;
14048;SDS011;7099;53.922;10.728;2023-01-29T15:01:47;20.53;;;14.17;;
14048;SDS011;7099;53.922;10.728;2023-01-29T15:05:58;22.30;;;16.07;;
14048;SDS011;7099;53.922;10.728;2023-01-29T15:10:13;23.83;;;15.03;;
14048;SDS011;7099;53.922;10.728;2023-01-29T15:23:40;23.73;;;15.50;;
14048;SDS011;7099;53.922;10.728;2023-01-29T15:27:47;23.00;;;14.90;;
14048;SDS011;7099;53.922;10.728;2023-01-29T15:31:54;22.53;;;15.17;;
14048;SDS011;7099;53.922;10.728;2023-01-29T15:36:01;26.50;;;16.00;;
14048;SDS011;7099;53.922;10.728;2023-01-29T15:40:13;24.90;;;16.17;;
14048;SDS011;7099;53.922;10.728;2023-01-29T15:44:21;21.87;;;14.93;;
14048;SDS011;7099;53.922;10.728;2023-01-29T15:48:29;22.43;;;14.23;;
14048;SDS011;7099;53.922;10.728;2023-01-29T15:52:39;22.70;;;14.37;;
14048;SDS011;7099;53.922;10.728;2023-01-29T15:56:46;21.07;;;14.00;;
14048;SDS011;7099;53.922;10.728;2023-01-29T16:00:55;18.50;;;13.23;;
14048;SDS011;7099;53.922;10.728;2023-01-29T16:05:13;21.50;;;14.20;;
14048;SDS011;7099;53.922;10.728;2023-01-29T16:09:25;21.83;;;14.13;;
14048;SDS011;7099;53.922;10.728;2023-01-29T16:13:33;19.80;;;14.23;;
14048;SDS011;7099;53.922;10.728;2023-01-29T16:17:42;21.10;;;14.70;;
14048;SDS011;7099;53.922;10.728;2023-01-29T16:21:51;22.87;;;14.20;;
14048;SDS011;7099;53.922;10.728;2023-01-29T16:26:07;23.97;;;15.00;;
14048;SDS011;7099;53.922;10.728;2023-01-29T16:30:20;19.97;;;14.40;;
14048;SDS011;7099;53.922;10.728;2023-01-29T16:34:35;23.10;;;15.67;;
14048;SDS011;7099;53.922;10.728;2023-01-29T16:38:48;20.60;;;14.87;;
14048;SDS011;7099;53.922;10.728;2023-01-29T16:51:39;22.90;;;13.97;;
14048;SDS011;7099;53.922;10.728;2023-01-29T16:55:45;22.50;;;15.27;;
14048;SDS011;7099;53.922;10.728;2023-01-29T16:59:57;19.93;;;13.10;;
14048;SDS011;7099;53.922;10.728;2023-01-29T17:04:09;27.60;;;14.97;;
14048;SDS011;7099;53.922;10.728;2023-01-29T17:08:21;24.23;;;15.60;;
14048;SDS011;7099;53.922;10.728;2023-01-29T17:12:37;20.60;;;14.13;;
14048;SDS011;7099;53.922;10.728;2023-01-29T17:16:50;35.67;;;24.23;;
14048;SDS011;7099;53.922;10.728;2023-01-29T17:21:01;27.17;;;17.90;;
14048;SDS011;7099;53.922;10.728;2023-01-29T17:25:07;24.57;;;16.17;;
14048;SDS011;7099;53.922;10.728;2023-01-29T17:29:17;27.10;;;16.50;;
14048;SDS011;7099;53.922;10.728;2023-01-29T17:33:27;28.37;;;17.17;;
14048;SDS011;7099;53.922;10.728;2023-01-29T17:37:33;25.37;;;15.77;;
14048;SDS011;7099;53.922;10.728;2023-01-29T17:41:38;26.10;;;16.60;;
14048;SDS011;7099;53.922;10.728;2023-01-29T17:45:45;24.17;;;14.43;;
14048;SDS011;7099;53.922;10.728;2023-01-29T17:49:50;23.03;;;16.57;;
14048;SDS011;7099;53.922;10.728;2023-01-29T17:53:56;28.13;;;17.20;;
14048;SDS011;7099;53.922;10.728;2023-01-29T17:58:02;25.30;;;16.13;;
14048;SDS011;7099;53.922;10.728;2023-01-29T18:02:07;27.77;;;16.77;;
14048;SDS011;7099;53.922;10.728;2023-01-29T18:06:33;27.00;;;14.47;;
14048;SDS011;7099;53.922;10.728;2023-01-29T18:10:38;26.00;;;16.07;;
14048;SDS011;7099;53.922;10.728;2023-01-29T18:14:44;26.13;;;15.57;;
14048;SDS011;7099;53.922;10.728;2023-01-29T18:18:50;24.37;;;14.53;;
14048;SDS011;7099;53.922;10.728;2023-01-29T18:22:56;22.20;;;14.17;;
14048;SDS011;7099;53.922;10.728;2023-01-29T18:27:02;20.70;;;15.33;;
14048;SDS011;7099;53.922;10.728;2023-01-29T18:31:08;23.83;;;14.00;;
14048;SDS011;7099;53.922;10.728;2023-01-29T18:35:15;23.00;;;15.40;;
14048;SDS011;7099;53.922;10.728;2023-01-29T18:39:22;23.37;;;14.33;;
14048;SDS011;7099;53.922;10.728;2023-01-29T18:43:28;17.17;;;11.90;;
14048;SDS011;7099;53.922;10.728;2023-01-29T18:47:34;20.53;;;11.83;;
14048;SDS011;7099;53.922;10.728;2023-01-29T18:51:39;21.53;;;13.53;;
14048;SDS011;7099;53.922;10.728;2023-01-29T18:55:55;19.40;;;13.87;;
14048;SDS011;7099;53.922;10.728;2023-01-29T19:00:02;16.90;;;11.97;;
14048;SDS011;7099;53.922;10.728;2023-01-29T19:04:09;17.80;;;12.20;;
14048;SDS011;7099;53.922;10.728;2023-01-29T19:08:14;20.37;;;13.57;;
14048;SDS011;7099;53.922;10.728;2023-01-29T19:12:20;19.00;;;12.57;;
14048;SDS011;7099;53.922;10.728;2023-01-29T19:16:26;16.93;;;11.97;;
14048;SDS011;7099;53.922;10.728;2023-01-29T19:20:32;20.30;;;12.47;;
14048;SDS011;7099;53.922;10.728;2023-01-29T19:24:37;15.03;;;10.03;;
14048;SDS011;7099;53.922;10.728;2023-01-29T19:28:43;22.80;;;12.80;;
14048;SDS011;7099;53.922;10.728;2023-01-29T19:32:48;18.47;;;13.20;;
14048;SDS011;7099;53.922;10.728;2023-01-29T19:36:54;17.87;;;11.97;;
14048;SDS011;7099;53.922;10.728;2023-01-29T19:40:59;17.97;;;12.93;;
14048;SDS011;7099;53.922;10.728;2023-01-29T19:45:05;9.60;;;6.67;;
14048;SDS011;7099;53.922;10.728;2023-01-29T19:49:12;22.60;;;13.10;;
14048;SDS011;7099;53.922;10.728;2023-01-29T19:53:17;21.80;;;13.33;;
14048;SDS011;7099;53.922;10.728;2023-01-29T19:57:23;22.07;;;14.13;;
14048;SDS011;7099;53.922;10.728;2023-01-29T20:01:28;21.17;;;13.97;;
14048;SDS011;7099;53.922;10.728;2023-01-29T20:05:34;25.40;;;14.50;;
14048;SDS011;7099;53.922;10.728;2023-01-29T20:09:41;28.03;;;17.00;;
14048;SDS011;7099;53.922;10.728;2023-01-29T20:13:47;26.23;;;16.77;;
14048;SDS011;7099;53.922;10.728;2023-01-29T20:17:55;26.67;;;16.80;;
14048;SDS011;7099;53.922;10.728;2023-01-29T20:22:03;27.33;;;17.60;;
14048;SDS011;7099;53.922;10.728;2023-01-29T20:26:10;30.53;;;18.50;;
14048;SDS011;7099;53.922;10.728;2023-01-29T20:30:19;28.50;;;16.80;;
14048;SDS011;7099;53.922;10.728;2023-01-29T20:34:25;33.63;;;19.90;;
14048;SDS011;7099;53.922;10.728;2023-01-29T20:38:37;32.37;;;19.00;;
14048;SDS011;7099;53.922;10.728;2023-01-29T20:42:43;36.47;;;18.30;;
14048;SDS011;7099;53.922;10.728;2023-01-29T20:46:48;36.50;;;20.53;;
14048;SDS011;7099;53.922;10.728;2023-01-29T20:50:54;37.60;;;20.47;;
14048;SDS011;7099;53.922;10.728;2023-01-29T20:55:01;30.87;;;16.80;;
14048;SDS011;7099;53.922;10.728;2023-01-29T20:59:08;32.70;;;20.57;;
14048;SDS011;7099;53.922;10.728;2023-01-29T21:03:13;32.50;;;16.77;;
14048;SDS011;7099;53.922;10.728;2023-01-29T21:07:19;38.73;;;20.90;;
14048;SDS011;7099;53.922;10.728;2023-01-29T21:11:24;34.47;;;20.50;;
14048;SDS011;7099;53.922;10.728;2023-01-29T21:15:30;37.13;;;20.70;;
14048;SDS011;7099;53.922;10.728;2023-01-29T21:19:36;44.23;;;23.90;;
14048;SDS011;7099;53.922;10.728;2023-01-29T21:23:41;47.17;;;22.70;;
14048;SDS011;7099;53.922;10.728;2023-01-29T21:27:47;40.77;;;21.13;;
14048;SDS011;7099;53.922;10.728;2023-01-29T21:31:53;46.67;;;24.60;;
14048;SDS011;7099;53.922;10.728;2023-01-29T21:35:59;31.80;;;18.20;;
14048;SDS011;7099;53.922;10.728;2023-01-29T21:40:05;43.20;;;24.00;;
14048;SDS011;7099;53.922;10.728;2023-01-29T21:44:12;39.90;;;21.10;;
14048;SDS011;7099;53.922;10.728;2023-01-29T21:48:19;48.07;;;23.93;;
14048;SDS011;7099;53.922;10.728;2023-01-29T21:52:25;38.20;;;20.90;;
14048;SDS011;7099;53.922;10.728;2023-01-29T21:56:30;38.07;;;20.10;;
14048;SDS011;7099;53.922;10.728;2023-01-29T22:00:36;43.97;;;23.30;;
14048;SDS011;7099;53.922;10.728;2023-01-29T22:04:42;40.20;;;22.70;;
14048;SDS011;7099;53.922;10.728;2023-01-29T22:08:48;41.87;;;22.80;;
14048;SDS011;7099;53.922;10.728;2023-01-29T22:12:54;38.63;;;22.03;;
14048;SDS011;7099;53.922;10.728;2023-01-29T22:17:00;43.97;;;20.10;;
14048;SDS011;7099;53.922;10.728;2023-01-29T22:21:06;37.13;;;21.00;;
14048;SDS011;7099;53.922;10.728;2023-01-29T22:25:11;40.30;;;20.90;;
14048;SDS011;7099;53.922;10.728;2023-01-29T22:29:17;43.73;;;21.83;;
14048;SDS011;7099;53.922;10.728;2023-01-29T22:33:23;36.73;;;21.33;;
14048;SDS011;7099;53.922;10.728;2023-01-29T22:37:29;45.63;;;22.10;;
14048;SDS011;7099;53.922;10.728;2023-01-29T22:41:34;37.30;;;20.13;;
14048;SDS011;7099;53.922;10.728;2023-01-29T22:45:40;41.93;;;21.47;;
14048;SDS011;7099;53.922;10.728;2023-01-29T22:49:46;33.10;;;15.07;;
14048;SDS011;7099;53.922;10.728;2023-01-29T22:53:54;31.30;;;17.27;;
14048;SDS011;7099;53.922;10.728;2023-01-29T22:58:01;27.13;;;15.73;;
14048;SDS011;7099;53.922;10.728;2023-01-29T23:02:07;27.70;;;15.80;;
14048;SDS011;7099;53.922;10.728;2023-01-29T23:06:13;28.60;;;16.70;;
14048;SDS011;7099;53.922;10.728;2023-01-29T23:10:20;26.87;;;15.73;;
14048;SDS011;7099;53.922;10.728;2023-01-29T23:14:25;27.07;;;14.87;;
14048;SDS011;7099;53.922;10.728;2023-01-29T23:18:31;27.93;;;15.93;;
14048;SDS011;7099;53.922;10.728;2023-01-29T23:22:36;26.60;;;14.63;;
14048;SDS011;7099;53.922;10.728;2023-01-29T23:26:42;30.07;;;15.40;;
14048;SDS011;7099;53.922;10.728;2023-01-29T23:31:07;22.40;;;14.40;;
14048;SDS011;7099;53.922;10.728;2023-01-29T23:35:12;27.13;;;16.23;;
14048;SDS011;7099;53.922;10.728;2023-01-29T23:39:18;25.87;;;14.10;;
14048;SDS011;7099;53.922;10.728;2023-01-29T23:43:24;25.63;;;15.40;;
14048;SDS011;7099;53.922;10.728;2023-01-29T23:47:31;19.90;;;12.93;;
14048;SDS011;7099;53.922;10.728;2023-01-29T23:51:37;25.37;;;14.27;;
14048;SDS011;7099;53.922;10.728;2023-01-29T23:55:42;22.47;;;12.13;;
14048;SDS011;7099;53.922;10.728;2023-01-29T23:59:48;25.50;;;14.10;;
